Brown Summit, North Carolina
Current Conditions -  °F | °C
As of 7:54 AM on Sunday 21 Dec 2014 (Local Time) from KBUY Reporting Station
Haze Haze  
Wind Chill: 38°   Ceiling: 2700
Heat Index: 38°   Visibility: 6mi
Dew Point: 34°   Wind: 0mph
Humidity: 86%   Direction: NA
Pressure: 30.29"   Gusts: NA
Location:  36.2136°N, 79.6775°W
Report Text: KBUY 211254Z AUTO 00000KT 6SM BR OVC027 03/01 A3029 RMK AO2 SLP259 T00330011
Loading
Personal Weather Stations






























Interactive Weather Map New forecast layout! Learn more

10-Day Weather Forecast

Advertisements
Track Severe Weather on mobile